sensor_id;sensor_type;location;lat;lon;timestamp;temperature;humidity
35491;DHT22;21605;52.068;20.806;2024-03-22T00:02:11;10.00;99.90
35491;DHT22;21605;52.068;20.806;2024-03-22T00:04:37;10.00;99.90
35491;DHT22;21605;52.068;20.806;2024-03-22T00:07:03;10.00;99.90
35491;DHT22;21605;52.068;20.806;2024-03-22T00:09:29;9.80;99.90
35491;DHT22;21605;52.068;20.806;2024-03-22T00:11:54;9.90;99.90
35491;DHT22;21605;52.068;20.806;2024-03-22T00:14:25;9.90;99.90
35491;DHT22;21605;52.068;20.806;2024-03-22T00:16:51;9.90;99.90
35491;DHT22;21605;52.068;20.806;2024-03-22T00:19:25;9.90;99.90
35491;DHT22;21605;52.068;20.806;2024-03-22T00:21:51;9.90;99.90
35491;DHT22;21605;52.068;20.806;2024-03-22T00:24:26;10.00;99.90
35491;DHT22;21605;52.068;20.806;2024-03-22T00:26:51;10.00;99.90
35491;DHT22;21605;52.068;20.806;2024-03-22T00:29:17;9.90;99.90
35491;DHT22;21605;52.068;20.806;2024-03-22T00:31:42;9.90;99.90
35491;DHT22;21605;52.068;20.806;2024-03-22T00:34:08;10.00;99.90
35491;DHT22;21605;52.068;20.806;2024-03-22T00:36:34;10.00;99.90
35491;DHT22;21605;52.068;20.806;2024-03-22T00:38:59;9.90;99.90
35491;DHT22;21605;52.068;20.806;2024-03-22T00:41:26;10.00;99.90
35491;DHT22;21605;52.068;20.806;2024-03-22T00:43:51;9.90;99.90
35491;DHT22;21605;52.068;20.806;2024-03-22T00:46:17;9.90;99.90
35491;DHT22;21605;52.068;20.806;2024-03-22T00:48:43;9.90;99.90
35491;DHT22;21605;52.068;20.806;2024-03-22T00:51:08;10.00;99.90
35491;DHT22;21605;52.068;20.806;2024-03-22T00:53:34;9.90;99.90
35491;DHT22;21605;52.068;20.806;2024-03-22T00:55:59;9.90;99.90
35491;DHT22;21605;52.068;20.806;2024-03-22T00:58:28;10.00;99.90
35491;DHT22;21605;52.068;20.806;2024-03-22T01:00:54;9.90;99.90
35491;DHT22;21605;52.068;20.806;2024-03-22T01:03:20;9.90;99.90
35491;DHT22;21605;52.068;20.806;2024-03-22T01:05:46;9.90;99.90
35491;DHT22;21605;52.068;20.806;2024-03-22T01:08:12;9.90;99.90
35491;DHT22;21605;52.068;20.806;2024-03-22T01:10:37;9.90;99.90
35491;DHT22;21605;52.068;20.806;2024-03-22T01:13:03;10.10;99.90
35491;DHT22;21605;52.068;20.806;2024-03-22T01:15:29;9.90;99.90
35491;DHT22;21605;52.068;20.806;2024-03-22T01:17:55;10.00;99.90
35491;DHT22;21605;52.068;20.806;2024-03-22T01:20:29;10.00;99.90
35491;DHT22;21605;52.068;20.806;2024-03-22T01:22:55;10.00;99.90
35491;DHT22;21605;52.068;20.806;2024-03-22T01:25:27;10.00;99.90
35491;DHT22;21605;52.068;20.806;2024-03-22T01:27:53;10.00;99.90
35491;DHT22;21605;52.068;20.806;2024-03-22T01:30:19;10.10;99.90
35491;DHT22;21605;52.068;20.806;2024-03-22T01:32:44;10.10;99.90
35491;DHT22;21605;52.068;20.806;2024-03-22T01:35:10;10.10;99.90
35491;DHT22;21605;52.068;20.806;2024-03-22T01:37:36;10.10;99.90
35491;DHT22;21605;52.068;20.806;2024-03-22T01:40:03;10.00;99.90
35491;DHT22;21605;52.068;20.806;2024-03-22T01:42:31;10.10;99.90
35491;DHT22;21605;52.068;20.806;2024-03-22T01:44:56;10.10;99.90
35491;DHT22;21605;52.068;20.806;2024-03-22T01:47:31;10.10;99.90
35491;DHT22;21605;52.068;20.806;2024-03-22T01:49:57;10.10;99.90
35491;DHT22;21605;52.068;20.806;2024-03-22T01:52:32;10.10;99.90
35491;DHT22;21605;52.068;20.806;2024-03-22T01:54:58;10.10;99.90
35491;DHT22;21605;52.068;20.806;2024-03-22T01:57:33;10.10;99.90
35491;DHT22;21605;52.068;20.806;2024-03-22T01:59:59;10.20;99.90
35491;DHT22;21605;52.068;20.806;2024-03-22T02:02:30;10.10;99.90
35491;DHT22;21605;52.068;20.806;2024-03-22T02:04:56;10.20;99.90
35491;DHT22;21605;52.068;20.806;2024-03-22T02:07:31;10.20;99.90
35491;DHT22;21605;52.068;20.806;2024-03-22T02:09:56;10.20;99.90
35491;DHT22;21605;52.068;20.806;2024-03-22T02:12:22;10.20;99.90
35491;DHT22;21605;52.068;20.806;2024-03-22T02:14:48;10.20;99.90
35491;DHT22;21605;52.068;20.806;2024-03-22T02:17:14;10.70;99.90
35491;DHT22;21605;52.068;20.806;2024-03-22T02:19:39;10.20;99.90
35491;DHT22;21605;52.068;20.806;2024-03-22T02:22:05;10.20;99.90
35491;DHT22;21605;52.068;20.806;2024-03-22T02:24:30;10.20;99.90
35491;DHT22;21605;52.068;20.806;2024-03-22T02:26:56;10.20;99.90
35491;DHT22;21605;52.068;20.806;2024-03-22T02:29:31;10.20;99.90
35491;DHT22;21605;52.068;20.806;2024-03-22T02:31:56;10.20;99.90
35491;DHT22;21605;52.068;20.806;2024-03-22T02:34:32;10.20;99.90
35491;DHT22;21605;52.068;20.806;2024-03-22T02:36:58;10.20;99.90
35491;DHT22;21605;52.068;20.806;2024-03-22T02:39:23;10.20;99.90
35491;DHT22;21605;52.068;20.806;2024-03-22T02:41:50;10.20;99.90
35491;DHT22;21605;52.068;20.806;2024-03-22T02:44:16;10.30;99.90
35491;DHT22;21605;52.068;20.806;2024-03-22T02:46:42;10.20;99.90
35491;DHT22;21605;52.068;20.806;2024-03-22T02:49:07;10.20;99.90
35491;DHT22;21605;52.068;20.806;2024-03-22T02:51:33;10.30;99.90
35491;DHT22;21605;52.068;20.806;2024-03-22T02:53:58;10.30;99.90
35491;DHT22;21605;52.068;20.806;2024-03-22T02:56:33;10.30;99.90
35491;DHT22;21605;52.068;20.806;2024-03-22T02:58:59;10.20;99.90
35491;DHT22;21605;52.068;20.806;2024-03-22T03:01:34;10.20;99.90
35491;DHT22;21605;52.068;20.806;2024-03-22T03:03:59;10.30;99.90
35491;DHT22;21605;52.068;20.806;2024-03-22T03:06:31;10.30;99.90
35491;DHT22;21605;52.068;20.806;2024-03-22T03:08:56;10.20;99.90
35491;DHT22;21605;52.068;20.806;2024-03-22T03:11:22;10.30;99.90
35491;DHT22;21605;52.068;20.806;2024-03-22T03:13:48;10.30;99.90
35491;DHT22;21605;52.068;20.806;2024-03-22T03:16:13;10.30;99.90
35491;DHT22;21605;52.068;20.806;2024-03-22T03:18:39;10.30;99.90
35491;DHT22;21605;52.068;20.806;2024-03-22T03:21:05;10.30;99.90
35491;DHT22;21605;52.068;20.806;2024-03-22T03:23:33;10.30;99.90
35491;DHT22;21605;52.068;20.806;2024-03-22T03:25:59;10.30;99.90
35491;DHT22;21605;52.068;20.806;2024-03-22T03:28:34;10.30;99.90
35491;DHT22;21605;52.068;20.806;2024-03-22T03:30:59;10.30;99.90
35491;DHT22;21605;52.068;20.806;2024-03-22T03:33:37;10.30;99.90
35491;DHT22;21605;52.068;20.806;2024-03-22T03:36:03;10.30;99.90
35491;DHT22;21605;52.068;20.806;2024-03-22T03:38:34;10.30;99.90
35491;DHT22;21605;52.068;20.806;2024-03-22T03:41:03;10.30;99.90
35491;DHT22;21605;52.068;20.806;2024-03-22T03:43:33;10.30;99.90
35491;DHT22;21605;52.068;20.806;2024-03-22T03:45:59;10.30;99.90
35491;DHT22;21605;52.068;20.806;2024-03-22T03:48:34;10.30;99.90
35491;DHT22;21605;52.068;20.806;2024-03-22T03:50:59;10.30;99.90
35491;DHT22;21605;52.068;20.806;2024-03-22T03:53:32;10.30;99.90
35491;DHT22;21605;52.068;20.806;2024-03-22T03:55:57;10.20;99.90
35491;DHT22;21605;52.068;20.806;2024-03-22T03:58:23;10.20;99.90
35491;DHT22;21605;52.068;20.806;2024-03-22T04:00:48;10.30;99.90
35491;DHT22;21605;52.068;20.806;2024-03-22T04:03:14;10.30;99.90
35491;DHT22;21605;52.068;20.806;2024-03-22T04:05:40;10.30;99.90
35491;DHT22;21605;52.068;20.806;2024-03-22T04:08:06;10.20;99.90
35491;DHT22;21605;52.068;20.806;2024-03-22T04:10:34;10.30;99.90
35491;DHT22;21605;52.068;20.806;2024-03-22T04:13:00;10.20;99.90
35491;DHT22;21605;52.068;20.806;2024-03-22T04:15:34;10.20;99.90
35491;DHT22;21605;52.068;20.806;2024-03-22T04:18:00;10.20;99.90
35491;DHT22;21605;52.068;20.806;2024-03-22T04:20:34;10.10;99.90
35491;DHT22;21605;52.068;20.806;2024-03-22T04:23:00;10.10;99.90
35491;DHT22;21605;52.068;20.806;2024-03-22T04:25:26;10.10;99.90
35491;DHT22;21605;52.068;20.806;2024-03-22T04:28:06;10.00;99.90
35491;DHT22;21605;52.068;20.806;2024-03-22T04:30:35;10.00;99.90
35491;DHT22;21605;52.068;20.806;2024-03-22T04:33:00;10.00;99.90
35491;DHT22;21605;52.068;20.806;2024-03-22T04:35:26;9.90;99.90
35491;DHT22;21605;52.068;20.806;2024-03-22T04:37:51;9.90;99.90
35491;DHT22;21605;52.068;20.806;2024-03-22T04:40:17;9.90;99.90
35491;DHT22;21605;52.068;20.806;2024-03-22T04:42:43;9.80;99.90
35491;DHT22;21605;52.068;20.806;2024-03-22T04:45:08;9.90;99.90
35491;DHT22;21605;52.068;20.806;2024-03-22T04:47:37;9.80;99.90
35491;DHT22;21605;52.068;20.806;2024-03-22T04:50:03;9.70;99.90
35491;DHT22;21605;52.068;20.806;2024-03-22T04:52:38;9.70;99.90
35491;DHT22;21605;52.068;20.806;2024-03-22T04:55:04;9.70;99.90
35491;DHT22;21605;52.068;20.806;2024-03-22T04:57:39;9.60;99.90
35491;DHT22;21605;52.068;20.806;2024-03-22T05:00:05;9.60;99.90
35491;DHT22;21605;52.068;20.806;2024-03-22T05:02:36;9.60;99.90
35491;DHT22;21605;52.068;20.806;2024-03-22T05:05:02;9.60;99.90
35491;DHT22;21605;52.068;20.806;2024-03-22T05:07:28;9.50;99.90
35491;DHT22;21605;52.068;20.806;2024-03-22T05:09:57;9.50;99.90
35491;DHT22;21605;52.068;20.806;2024-03-22T05:12:22;9.50;99.90
35491;DHT22;21605;52.068;20.806;2024-03-22T05:14:48;9.40;99.90
35491;DHT22;21605;52.068;20.806;2024-03-22T05:17:13;9.40;99.90
35491;DHT22;21605;52.068;20.806;2024-03-22T05:19:39;9.30;99.90
35491;DHT22;21605;52.068;20.806;2024-03-22T05:22:05;9.40;99.90
35491;DHT22;21605;52.068;20.806;2024-03-22T05:24:36;9.40;99.90
35491;DHT22;21605;52.068;20.806;2024-03-22T05:27:02;9.30;99.90
35491;DHT22;21605;52.068;20.806;2024-03-22T05:29:28;9.30;99.90
35491;DHT22;21605;52.068;20.806;2024-03-22T05:31:53;9.30;99.90
35491;DHT22;21605;52.068;20.806;2024-03-22T05:34:19;9.30;99.90
35491;DHT22;21605;52.068;20.806;2024-03-22T05:36:48;9.30;99.90
35491;DHT22;21605;52.068;20.806;2024-03-22T05:39:14;9.20;99.90
35491;DHT22;21605;52.068;20.806;2024-03-22T05:41:40;9.20;99.90
35491;DHT22;21605;52.068;20.806;2024-03-22T05:44:06;9.20;99.90
35491;DHT22;21605;52.068;20.806;2024-03-22T05:46:35;9.20;99.90
35491;DHT22;21605;52.068;20.806;2024-03-22T05:49:01;9.20;99.90
35491;DHT22;21605;52.068;20.806;2024-03-22T05:51:26;9.20;99.90
35491;DHT22;21605;52.068;20.806;2024-03-22T05:53:52;9.20;99.90
35491;DHT22;21605;52.068;20.806;2024-03-22T05:56:18;9.20;99.90
35491;DHT22;21605;52.068;20.806;2024-03-22T05:58:44;9.20;99.90
35491;DHT22;21605;52.068;20.806;2024-03-22T06:01:09;9.10;99.90
35491;DHT22;21605;52.068;20.806;2024-03-22T06:03:40;9.10;99.90
35491;DHT22;21605;52.068;20.806;2024-03-22T06:06:05;9.10;99.90
35491;DHT22;21605;52.068;20.806;2024-03-22T06:08:37;9.10;99.90
35491;DHT22;21605;52.068;20.806;2024-03-22T06:11:06;9.10;99.90
35491;DHT22;21605;52.068;20.806;2024-03-22T06:13:41;9.10;99.90
35491;DHT22;21605;52.068;20.806;2024-03-22T06:16:07;9.10;99.90
35491;DHT22;21605;52.068;20.806;2024-03-22T06:18:42;9.20;99.90
35491;DHT22;21605;52.068;20.806;2024-03-22T06:21:07;9.20;99.90
35491;DHT22;21605;52.068;20.806;2024-03-22T06:23:42;9.20;99.90
35491;DHT22;21605;52.068;20.806;2024-03-22T06:26:08;9.20;99.90
35491;DHT22;21605;52.068;20.806;2024-03-22T06:28:42;9.20;99.90
35491;DHT22;21605;52.068;20.806;2024-03-22T06:31:08;9.30;99.90
35491;DHT22;21605;52.068;20.806;2024-03-22T06:33:43;9.30;99.90
35491;DHT22;21605;52.068;20.806;2024-03-22T06:36:08;9.30;99.90
35491;DHT22;21605;52.068;20.806;2024-03-22T06:38:43;9.40;99.90
35491;DHT22;21605;52.068;20.806;2024-03-22T06:41:08;10.20;99.90
35491;DHT22;21605;52.068;20.806;2024-03-22T06:43:34;9.30;99.90
35491;DHT22;21605;52.068;20.806;2024-03-22T06:46:00;9.50;99.90
35491;DHT22;21605;52.068;20.806;2024-03-22T06:48:25;9.40;99.90
35491;DHT22;21605;52.068;20.806;2024-03-22T06:50:51;9.40;99.90
35491;DHT22;21605;52.068;20.806;2024-03-22T06:53:16;9.40;99.90
35491;DHT22;21605;52.068;20.806;2024-03-22T06:55:48;9.50;99.90
35491;DHT22;21605;52.068;20.806;2024-03-22T06:58:14;9.50;99.90
35491;DHT22;21605;52.068;20.806;2024-03-22T07:00:39;9.40;99.90
35491;DHT22;21605;52.068;20.806;2024-03-22T07:03:05;9.50;99.90
35491;DHT22;21605;52.068;20.806;2024-03-22T07:05:30;9.50;99.90
35491;DHT22;21605;52.068;20.806;2024-03-22T07:07:56;9.50;99.90
35491;DHT22;21605;52.068;20.806;2024-03-22T07:10:23;9.40;99.90
35491;DHT22;21605;52.068;20.806;2024-03-22T07:12:53;9.50;99.90
35491;DHT22;21605;52.068;20.806;2024-03-22T07:15:19;9.40;99.90
35491;DHT22;21605;52.068;20.806;2024-03-22T07:17:44;9.50;99.90
35491;DHT22;21605;52.068;20.806;2024-03-22T07:20:10;9.50;99.90
35491;DHT22;21605;52.068;20.806;2024-03-22T07:22:41;9.40;99.90
35491;DHT22;21605;52.068;20.806;2024-03-22T07:25:07;9.50;99.90
35491;DHT22;21605;52.068;20.806;2024-03-22T07:27:40;9.40;99.90
35491;DHT22;21605;52.068;20.806;2024-03-22T07:30:06;9.40;99.90
35491;DHT22;21605;52.068;20.806;2024-03-22T07:32:33;9.40;99.90
35491;DHT22;21605;52.068;20.806;2024-03-22T07:34:58;9.50;99.90
35491;DHT22;21605;52.068;20.806;2024-03-22T07:37:24;9.50;99.90
35491;DHT22;21605;52.068;20.806;2024-03-22T07:39:50;9.50;99.90
35491;DHT22;21605;52.068;20.806;2024-03-22T07:42:16;9.50;99.90
35491;DHT22;21605;52.068;20.806;2024-03-22T07:44:47;9.50;99.90
35491;DHT22;21605;52.068;20.806;2024-03-22T07:47:13;9.50;99.90
35491;DHT22;21605;52.068;20.806;2024-03-22T07:49:44;9.50;99.90
35491;DHT22;21605;52.068;20.806;2024-03-22T07:52:09;9.50;99.90
35491;DHT22;21605;52.068;20.806;2024-03-22T07:54:35;9.50;99.90
35491;DHT22;21605;52.068;20.806;2024-03-22T07:57:16;9.60;99.90
35491;DHT22;21605;52.068;20.806;2024-03-22T07:59:45;9.50;99.90
35491;DHT22;21605;52.068;20.806;2024-03-22T08:02:11;9.50;99.90
35491;DHT22;21605;52.068;20.806;2024-03-22T08:04:45;9.50;99.90
35491;DHT22;21605;52.068;20.806;2024-03-22T08:07:11;9.60;99.90
35491;DHT22;21605;52.068;20.806;2024-03-22T08:09:41;9.70;99.90
35491;DHT22;21605;52.068;20.806;2024-03-22T08:12:07;9.60;99.90
35491;DHT22;21605;52.068;20.806;2024-03-22T08:14:33;9.60;99.90
35491;DHT22;21605;52.068;20.806;2024-03-22T08:16:58;9.60;99.90
35491;DHT22;21605;52.068;20.806;2024-03-22T08:19:24;9.60;99.90
35491;DHT22;21605;52.068;20.806;2024-03-22T08:21:50;9.70;99.90
35491;DHT22;21605;52.068;20.806;2024-03-22T08:24:15;9.70;99.90
35491;DHT22;21605;52.068;20.806;2024-03-22T08:26:46;9.60;99.90
35491;DHT22;21605;52.068;20.806;2024-03-22T08:29:13;9.70;99.90
35491;DHT22;21605;52.068;20.806;2024-03-22T08:31:48;9.70;99.90
35491;DHT22;21605;52.068;20.806;2024-03-22T08:34:14;9.70;99.90
35491;DHT22;21605;52.068;20.806;2024-03-22T08:36:40;9.80;99.90
35491;DHT22;21605;52.068;20.806;2024-03-22T08:39:05;9.70;99.90
35491;DHT22;21605;52.068;20.806;2024-03-22T08:41:32;9.70;99.90
35491;DHT22;21605;52.068;20.806;2024-03-22T08:43:58;9.80;99.90
35491;DHT22;21605;52.068;20.806;2024-03-22T08:46:24;9.80;99.90
35491;DHT22;21605;52.068;20.806;2024-03-22T08:48:52;9.80;99.90
35491;DHT22;21605;52.068;20.806;2024-03-22T08:51:17;9.80;99.90
35491;DHT22;21605;52.068;20.806;2024-03-22T08:53:48;9.80;99.90
35491;DHT22;21605;52.068;20.806;2024-03-22T08:56:14;9.80;99.90
35491;DHT22;21605;52.068;20.806;2024-03-22T08:58:48;10.00;99.90
35491;DHT22;21605;52.068;20.806;2024-03-22T09:01:15;9.90;99.90
35491;DHT22;21605;52.068;20.806;2024-03-22T09:03:40;9.90;99.90
35491;DHT22;21605;52.068;20.806;2024-03-22T09:06:06;9.90;99.90
35491;DHT22;21605;52.068;20.806;2024-03-22T09:08:31;10.00;99.90
35491;DHT22;21605;52.068;20.806;2024-03-22T09:10:58;10.00;99.90
35491;DHT22;21605;52.068;20.806;2024-03-22T09:13:25;10.10;99.90
35491;DHT22;21605;52.068;20.806;2024-03-22T09:15:57;10.00;99.90
35491;DHT22;21605;52.068;20.806;2024-03-22T09:18:23;10.00;99.90
35491;DHT22;21605;52.068;20.806;2024-03-22T09:20:48;10.00;99.90
35491;DHT22;21605;52.068;20.806;2024-03-22T09:23:14;10.00;99.90
35491;DHT22;21605;52.068;20.806;2024-03-22T09:25:39;10.00;99.90
35491;DHT22;21605;52.068;20.806;2024-03-22T09:28:05;10.00;99.90
35491;DHT22;21605;52.068;20.806;2024-03-22T09:30:31;10.00;99.90
35491;DHT22;21605;52.068;20.806;2024-03-22T09:32:56;10.00;99.90
35491;DHT22;21605;52.068;20.806;2024-03-22T09:35:23;10.00;99.90
35491;DHT22;21605;52.068;20.806;2024-03-22T09:37:50;10.00;99.90
35491;DHT22;21605;52.068;20.806;2024-03-22T09:40:16;10.00;99.90
35491;DHT22;21605;52.068;20.806;2024-03-22T09:42:53;9.90;99.90
35491;DHT22;21605;52.068;20.806;2024-03-22T09:45:19;10.00;99.90
35491;DHT22;21605;52.068;20.806;2024-03-22T09:47:52;10.00;99.90
35491;DHT22;21605;52.068;20.806;2024-03-22T09:50:20;10.00;99.90
35491;DHT22;21605;52.068;20.806;2024-03-22T09:52:52;10.10;99.90
35491;DHT22;21605;52.068;20.806;2024-03-22T09:55:24;9.90;99.90
35491;DHT22;21605;52.068;20.806;2024-03-22T09:57:50;10.00;99.90
35491;DHT22;21605;52.068;20.806;2024-03-22T10:00:18;9.90;99.90
35491;DHT22;21605;52.068;20.806;2024-03-22T10:02:53;9.90;99.90
35491;DHT22;21605;52.068;20.806;2024-03-22T10:05:19;9.90;99.90
35491;DHT22;21605;52.068;20.806;2024-03-22T10:07:51;10.00;99.90
35491;DHT22;21605;52.068;20.806;2024-03-22T10:10:17;9.90;99.90
35491;DHT22;21605;52.068;20.806;2024-03-22T10:12:43;10.00;99.90
35491;DHT22;21605;52.068;20.806;2024-03-22T10:15:09;9.90;99.90
35491;DHT22;21605;52.068;20.806;2024-03-22T10:17:35;10.00;99.90
35491;DHT22;21605;52.068;20.806;2024-03-22T10:20:01;10.20;99.90
35491;DHT22;21605;52.068;20.806;2024-03-22T10:22:26;10.10;99.90
35491;DHT22;21605;52.068;20.806;2024-03-22T10:24:53;10.30;99.90
35491;DHT22;21605;52.068;20.806;2024-03-22T10:27:19;10.30;99.90
35491;DHT22;21605;52.068;20.806;2024-03-22T10:29:45;10.30;99.90
35491;DHT22;21605;52.068;20.806;2024-03-22T10:32:12;10.40;99.90
35491;DHT22;21605;52.068;20.806;2024-03-22T10:34:39;10.40;99.90
35491;DHT22;21605;52.068;20.806;2024-03-22T10:37:08;10.50;99.90
35491;DHT22;21605;52.068;20.806;2024-03-22T10:39:35;10.50;99.90
35491;DHT22;21605;52.068;20.806;2024-03-22T10:42:02;10.50;99.90
35491;DHT22;21605;52.068;20.806;2024-03-22T10:44:28;10.50;99.90
35491;DHT22;21605;52.068;20.806;2024-03-22T10:46:55;10.60;99.90
35491;DHT22;21605;52.068;20.806;2024-03-22T10:49:24;10.70;99.90
35491;DHT22;21605;52.068;20.806;2024-03-22T10:51:56;10.80;99.90
35491;DHT22;21605;52.068;20.806;2024-03-22T10:54:25;10.90;99.90
35491;DHT22;21605;52.068;20.806;2024-03-22T10:56:54;11.00;99.90
35491;DHT22;21605;52.068;20.806;2024-03-22T10:59:22;11.20;99.90
35491;DHT22;21605;52.068;20.806;2024-03-22T11:01:48;11.30;99.90
35491;DHT22;21605;52.068;20.806;2024-03-22T11:04:21;11.40;99.90
35491;DHT22;21605;52.068;20.806;2024-03-22T11:06:56;11.50;99.90
35491;DHT22;21605;52.068;20.806;2024-03-22T11:09:24;11.60;99.90
35491;DHT22;21605;52.068;20.806;2024-03-22T11:11:55;11.60;99.90
35491;DHT22;21605;52.068;20.806;2024-03-22T11:14:22;11.60;99.90
35491;DHT22;21605;52.068;20.806;2024-03-22T11:16:55;11.60;99.90
35491;DHT22;21605;52.068;20.806;2024-03-22T11:19:21;11.60;99.90
35491;DHT22;21605;52.068;20.806;2024-03-22T11:21:55;11.60;99.90
35491;DHT22;21605;52.068;20.806;2024-03-22T11:24:21;11.60;99.90
35491;DHT22;21605;52.068;20.806;2024-03-22T11:26:56;11.60;99.90
35491;DHT22;21605;52.068;20.806;2024-03-22T11:29:21;11.50;99.90
35491;DHT22;21605;52.068;20.806;2024-03-22T11:31:52;11.50;99.90
35491;DHT22;21605;52.068;20.806;2024-03-22T11:34:18;11.50;99.90
35491;DHT22;21605;52.068;20.806;2024-03-22T11:36:43;11.50;99.90
35491;DHT22;21605;52.068;20.806;2024-03-22T11:39:09;11.50;99.90
35491;DHT22;21605;52.068;20.806;2024-03-22T11:41:35;11.60;99.90
35491;DHT22;21605;52.068;20.806;2024-03-22T11:44:01;11.40;99.90
35491;DHT22;21605;52.068;20.806;2024-03-22T11:46:27;11.50;99.90
35491;DHT22;21605;52.068;20.806;2024-03-22T11:48:54;11.50;99.90
35491;DHT22;21605;52.068;20.806;2024-03-22T11:51:20;11.50;99.90
35491;DHT22;21605;52.068;20.806;2024-03-22T11:53:55;11.60;99.90
35491;DHT22;21605;52.068;20.806;2024-03-22T11:56:21;11.60;99.90
35491;DHT22;21605;52.068;20.806;2024-03-22T11:58:48;11.60;99.90
35491;DHT22;21605;52.068;20.806;2024-03-22T12:01:15;11.60;99.90
35491;DHT22;21605;52.068;20.806;2024-03-22T12:03:43;11.70;99.90
35491;DHT22;21605;52.068;20.806;2024-03-22T12:06:10;11.70;99.90
35491;DHT22;21605;52.068;20.806;2024-03-22T12:08:37;11.80;99.90
35491;DHT22;21605;52.068;20.806;2024-03-22T12:11:04;11.90;99.90
35491;DHT22;21605;52.068;20.806;2024-03-22T12:13:29;11.90;99.90
35491;DHT22;21605;52.068;20.806;2024-03-22T12:15:56;11.80;99.90
35491;DHT22;21605;52.068;20.806;2024-03-22T12:18:22;11.90;99.90
35491;DHT22;21605;52.068;20.806;2024-03-22T12:21:00;11.90;99.90
35491;DHT22;21605;52.068;20.806;2024-03-22T12:23:25;11.90;99.90
35491;DHT22;21605;52.068;20.806;2024-03-22T12:25:51;11.90;99.90
35491;DHT22;21605;52.068;20.806;2024-03-22T12:28:20;11.90;99.90
35491;DHT22;21605;52.068;20.806;2024-03-22T12:30:46;11.90;99.90
35491;DHT22;21605;52.068;20.806;2024-03-22T12:33:12;11.90;99.90
35491;DHT22;21605;52.068;20.806;2024-03-22T12:35:39;11.90;99.90
35491;DHT22;21605;52.068;20.806;2024-03-22T12:38:06;11.90;99.90
35491;DHT22;21605;52.068;20.806;2024-03-22T12:40:31;11.90;99.90
35491;DHT22;21605;52.068;20.806;2024-03-22T12:42:58;11.90;99.90
35491;DHT22;21605;52.068;20.806;2024-03-22T12:45:24;12.50;99.90
35491;DHT22;21605;52.068;20.806;2024-03-22T12:47:55;12.10;99.90
35491;DHT22;21605;52.068;20.806;2024-03-22T12:50:21;12.10;99.90
35491;DHT22;21605;52.068;20.806;2024-03-22T12:52:46;12.10;99.90
35491;DHT22;21605;52.068;20.806;2024-03-22T12:55:12;12.10;99.90
35491;DHT22;21605;52.068;20.806;2024-03-22T12:57:38;12.00;99.90
35491;DHT22;21605;52.068;20.806;2024-03-22T13:00:06;12.00;99.90
35491;DHT22;21605;52.068;20.806;2024-03-22T13:02:41;12.10;99.90
35491;DHT22;21605;52.068;20.806;2024-03-22T13:05:07;12.10;99.90
35491;DHT22;21605;52.068;20.806;2024-03-22T13:07:34;12.10;99.90
35491;DHT22;21605;52.068;20.806;2024-03-22T13:09:59;12.00;99.90
35491;DHT22;21605;52.068;20.806;2024-03-22T13:12:28;12.00;99.90
35491;DHT22;21605;52.068;20.806;2024-03-22T13:14:56;12.00;99.90
35491;DHT22;21605;52.068;20.806;2024-03-22T13:17:22;12.00;99.90
35491;DHT22;21605;52.068;20.806;2024-03-22T13:19:49;12.00;99.90
35491;DHT22;21605;52.068;20.806;2024-03-22T13:22:15;12.00;99.90
35491;DHT22;21605;52.068;20.806;2024-03-22T13:24:47;11.90;99.90
35491;DHT22;21605;52.068;20.806;2024-03-22T13:27:13;12.00;99.90
35491;DHT22;21605;52.068;20.806;2024-03-22T13:29:42;12.00;99.90
35491;DHT22;21605;52.068;20.806;2024-03-22T13:32:08;12.00;99.90
35491;DHT22;21605;52.068;20.806;2024-03-22T13:34:37;12.00;99.90
35491;DHT22;21605;52.068;20.806;2024-03-22T13:37:02;11.40;99.90
35491;DHT22;21605;52.068;20.806;2024-03-22T13:39:29;12.00;99.90
35491;DHT22;21605;52.068;20.806;2024-03-22T13:42:01;12.10;99.90
35491;DHT22;21605;52.068;20.806;2024-03-22T13:44:27;12.10;99.90
35491;DHT22;21605;52.068;20.806;2024-03-22T13:46:53;12.10;99.90
35491;DHT22;21605;52.068;20.806;2024-03-22T13:49:19;12.10;99.90
35491;DHT22;21605;52.068;20.806;2024-03-22T13:51:49;12.20;99.90
35491;DHT22;21605;52.068;20.806;2024-03-22T13:54:15;12.30;99.90
35491;DHT22;21605;52.068;20.806;2024-03-22T13:56:40;12.20;99.90
35491;DHT22;21605;52.068;20.806;2024-03-22T13:59:06;12.20;99.90
35491;DHT22;21605;52.068;20.806;2024-03-22T14:01:37;12.10;99.90
35491;DHT22;21605;52.068;20.806;2024-03-22T14:04:04;12.20;99.90
35491;DHT22;21605;52.068;20.806;2024-03-22T14:06:33;12.10;99.90
35491;DHT22;21605;52.068;20.806;2024-03-22T14:08:59;12.20;99.90
35491;DHT22;21605;52.068;20.806;2024-03-22T14:11:33;12.20;99.90
35491;DHT22;21605;52.068;20.806;2024-03-22T14:13:59;12.10;99.90
35491;DHT22;21605;52.068;20.806;2024-03-22T14:16:25;12.10;99.90
35491;DHT22;21605;52.068;20.806;2024-03-22T14:18:51;12.10;99.90
35491;DHT22;21605;52.068;20.806;2024-03-22T14:21:17;11.90;99.90
35491;DHT22;21605;52.068;20.806;2024-03-22T14:23:48;11.90;99.90
35491;DHT22;21605;52.068;20.806;2024-03-22T14:26:15;11.90;99.90
35491;DHT22;21605;52.068;20.806;2024-03-22T14:28:42;11.80;99.90
35491;DHT22;21605;52.068;20.806;2024-03-22T14:31:08;11.80;99.90
35491;DHT22;21605;52.068;20.806;2024-03-22T14:33:37;11.90;99.90
35491;DHT22;21605;52.068;20.806;2024-03-22T14:36:04;11.90;99.90
35491;DHT22;21605;52.068;20.806;2024-03-22T14:38:30;11.90;99.90
35491;DHT22;21605;52.068;20.806;2024-03-22T14:41:02;11.80;99.90
35491;DHT22;21605;52.068;20.806;2024-03-22T14:43:28;11.80;99.90
35491;DHT22;21605;52.068;20.806;2024-03-22T14:46:05;11.80;99.90
35491;DHT22;21605;52.068;20.806;2024-03-22T14:48:31;11.80;99.90
35491;DHT22;21605;52.068;20.806;2024-03-22T14:50:59;11.80;99.90
35491;DHT22;21605;52.068;20.806;2024-03-22T14:53:26;11.80;99.90
35491;DHT22;21605;52.068;20.806;2024-03-22T14:55:58;11.80;99.90
35491;DHT22;21605;52.068;20.806;2024-03-22T14:58:27;11.80;99.90
35491;DHT22;21605;52.068;20.806;2024-03-22T15:01:05;11.70;99.90
35491;DHT22;21605;52.068;20.806;2024-03-22T15:03:32;11.70;99.90
35491;DHT22;21605;52.068;20.806;2024-03-22T15:06:04;11.70;99.90
35491;DHT22;21605;52.068;20.806;2024-03-22T15:08:31;11.80;99.90
35491;DHT22;21605;52.068;20.806;2024-03-22T15:10:57;11.70;99.90
35491;DHT22;21605;52.068;20.806;2024-03-22T15:13:23;11.80;99.90
35491;DHT22;21605;52.068;20.806;2024-03-22T15:16:12;11.80;99.90
35491;DHT22;21605;52.068;20.806;2024-03-22T15:18:37;11.70;99.90
35491;DHT22;21605;52.068;20.806;2024-03-22T15:21:04;11.70;99.90
35491;DHT22;21605;52.068;20.806;2024-03-22T15:23:29;11.70;99.90
35491;DHT22;21605;52.068;20.806;2024-03-22T15:25:55;11.60;99.90